Pine Bluff, AR

02:22 AM CDT am 16. September 2014 (GMT -0500)
Grider | Change Station
CLOSE
Current Station
Flughafen
Location: Pine Bluff,
Höhe: 207 ft
Wetterstationen in der Umgebung

Höhe 207 ft 34.17 °N, 91.93 °W | Updated 29 minutes ago

Light Rain
Leichter Regen
70 °F
gefühlte 70 °F
N
5
Wind Wechselnd Wind aus Süd-Südwest

Heute
Max. -- | schwach -- °F
--% Regenrisiko
Gestern
Max. -- | schwach -- °F
Precip. -- inch
6:51 AM 7:12 PM
Drittes Viertel, 48% visible
Druck 30.11 inch
Sichtweite 10.0 Meilen
Wolken Heiter
Taupunkt 68 °F
Feuchtigkeit 93%
Regen 0.00 inch
Schneehöhe Nicht verfügbar..
UV 0 von 12
Pollen 9.90 von 12
Luftqualität Nicht verfügbar..
Flu Activity Nicht verfügbar..
METAR KPBF 160653Z AUTO 20004KT 10SM -RA CLR 21/20 A3012 RMK AO2 RAB0557 SLP195 P0000 T02110200

More Conditions Fewer Conditions

Druck 30.11 inch
Sichtweite 10.0 Meilen
Wolken Heiter
Taupunkt 68 °F
Feuchtigkeit 93%
Regen 0.00 inch
Schneehöhe Nicht verfügbar..
UV 0 von 12
Pollen 9.90 von 12
Luftqualität Nicht verfügbar..
Flu Activity Nicht verfügbar..
METAR KPBF 160653Z AUTO 20004KT 10SM -RA CLR 21/20 A3012 RMK AO2 RAB0557 SLP195 P0000 T02110200

More Conditions Fewer Conditions

10-Day Weather Forecast

Almanac

Astronomie

Sep. 16, 2014 Aufgang Untergang
Genaue Zeit 06:51 CDT 19:12 CDT
Bürgerliche Dämmerung 06:26 CDT 19:37 CDT
Nautische Dämmerung 05:57 CDT 20:07 CDT
Astronomische Dämmerung 05:27 CDT 20:37 CDT
Mond 00:12 CDT 14:25 CDT
Länge des sichtbaren Lichts 13h 11m
Tageslänge
12h 21m
Tomorrow will be 2m 7s shorter.
Drittes Viertel, 48% of the Moon is Illuminated
Heute
Drittes Viertel
Sept 24
Neu
Okt 1
Erstes Viertel
Okt 8
Vollmond
Okt 15
Letztes Viertel

Heutige Rekorde

State Highs State Lows

Community

WunderPhotos

Upload Photos

1,753,699 Fotos hochgeladen!

Nearby

Schneehöhe

Station Depth Höhe
Kein Neuschnee gemeldet.

Erdbebenaktivität

Stadt Distance Mag. Time & Date
No recent earthquake activity has been reported nearby.
Minimum magnitude displayed is 2.5.

küstennahe Wassertemperaturen

Ort Temperatur
Kein Stationsbericht

Wetterstationen in der Umgebung